sensor_id;sensor_type;location;lat;lon;timestamp;P1;durP1;ratioP1;P2;durP2;ratioP2
10116;SDS011;5098;48.792;9.012;2023-06-22T00:01:06;14.10;;;11.50;;
10116;SDS011;5098;48.792;9.012;2023-06-22T00:03:32;14.07;;;11.20;;
10116;SDS011;5098;48.792;9.012;2023-06-22T00:05:58;11.10;;;10.10;;
10116;SDS011;5098;48.792;9.012;2023-06-22T00:08:24;11.80;;;10.70;;
10116;SDS011;5098;48.792;9.012;2023-06-22T00:10:50;12.30;;;11.00;;
10116;SDS011;5098;48.792;9.012;2023-06-22T00:13:16;12.33;;;11.10;;
10116;SDS011;5098;48.792;9.012;2023-06-22T00:15:43;13.40;;;11.33;;
10116;SDS011;5098;48.792;9.012;2023-06-22T00:18:09;12.23;;;11.10;;
10116;SDS011;5098;48.792;9.012;2023-06-22T00:20:36;12.50;;;11.20;;
10116;SDS011;5098;48.792;9.012;2023-06-22T00:23:03;12.27;;;11.17;;
10116;SDS011;5098;48.792;9.012;2023-06-22T00:25:36;13.23;;;11.93;;
10116;SDS011;5098;48.792;9.012;2023-06-22T00:28:02;14.03;;;11.77;;
10116;SDS011;5098;48.792;9.012;2023-06-22T00:30:29;13.37;;;11.60;;
10116;SDS011;5098;48.792;9.012;2023-06-22T00:32:56;12.03;;;10.97;;
10116;SDS011;5098;48.792;9.012;2023-06-22T00:35:22;11.83;;;10.50;;
10116;SDS011;5098;48.792;9.012;2023-06-22T00:37:52;12.43;;;11.33;;
10116;SDS011;5098;48.792;9.012;2023-06-22T00:40:25;13.40;;;12.00;;
10116;SDS011;5098;48.792;9.012;2023-06-22T00:42:52;14.13;;;10.60;;
10116;SDS011;5098;48.792;9.012;2023-06-22T00:45:18;11.67;;;10.60;;
10116;SDS011;5098;48.792;9.012;2023-06-22T00:47:44;12.43;;;11.13;;
10116;SDS011;5098;48.792;9.012;2023-06-22T00:50:10;12.03;;;10.97;;
10116;SDS011;5098;48.792;9.012;2023-06-22T00:52:39;12.40;;;11.20;;
10116;SDS011;5098;48.792;9.012;2023-06-22T00:55:11;12.50;;;11.30;;
10116;SDS011;5098;48.792;9.012;2023-06-22T00:57:37;12.17;;;11.07;;
10116;SDS011;5098;48.792;9.012;2023-06-22T01:00:03;11.47;;;10.47;;
10116;SDS011;5098;48.792;9.012;2023-06-22T01:02:34;11.30;;;10.30;;
10116;SDS011;5098;48.792;9.012;2023-06-22T01:05:01;14.43;;;11.20;;
10116;SDS011;5098;48.792;9.012;2023-06-22T01:07:39;14.40;;;12.20;;
10116;SDS011;5098;48.792;9.012;2023-06-22T01:10:09;12.90;;;11.70;;
10116;SDS011;5098;48.792;9.012;2023-06-22T01:12:42;13.67;;;12.23;;
10116;SDS011;5098;48.792;9.012;2023-06-22T01:15:14;14.17;;;12.83;;
10116;SDS011;5098;48.792;9.012;2023-06-22T01:17:41;13.70;;;12.40;;
10116;SDS011;5098;48.792;9.012;2023-06-22T01:20:08;13.70;;;12.40;;
10116;SDS011;5098;48.792;9.012;2023-06-22T01:22:42;13.03;;;11.93;;
10116;SDS011;5098;48.792;9.012;2023-06-22T01:25:21;14.13;;;12.80;;
10116;SDS011;5098;48.792;9.012;2023-06-22T01:27:56;14.40;;;13.10;;
10116;SDS011;5098;48.792;9.012;2023-06-22T01:30:26;12.60;;;11.30;;
10116;SDS011;5098;48.792;9.012;2023-06-22T01:32:54;12.60;;;11.40;;
10116;SDS011;5098;48.792;9.012;2023-06-22T01:35:20;12.73;;;11.50;;
10116;SDS011;5098;48.792;9.012;2023-06-22T01:37:46;12.73;;;11.13;;
10116;SDS011;5098;48.792;9.012;2023-06-22T01:40:13;13.40;;;12.10;;
10116;SDS011;5098;48.792;9.012;2023-06-22T01:42:39;13.40;;;12.10;;
10116;SDS011;5098;48.792;9.012;2023-06-22T01:45:06;12.70;;;11.40;;
10116;SDS011;5098;48.792;9.012;2023-06-22T01:47:32;13.73;;;11.87;;
10116;SDS011;5098;48.792;9.012;2023-06-22T01:49:59;14.00;;;12.67;;
10116;SDS011;5098;48.792;9.012;2023-06-22T01:52:25;13.73;;;12.40;;
10116;SDS011;5098;48.792;9.012;2023-06-22T01:54:51;12.40;;;11.30;;
10116;SDS011;5098;48.792;9.012;2023-06-22T01:57:18;12.90;;;11.60;;
10116;SDS011;5098;48.792;9.012;2023-06-22T01:59:48;13.03;;;11.67;;
10116;SDS011;5098;48.792;9.012;2023-06-22T02:02:19;12.43;;;11.20;;
10116;SDS011;5098;48.792;9.012;2023-06-22T02:04:52;12.80;;;11.47;;
10116;SDS011;5098;48.792;9.012;2023-06-22T02:07:19;11.53;;;10.50;;
10116;SDS011;5098;48.792;9.012;2023-06-22T02:09:46;11.73;;;10.63;;
10116;SDS011;5098;48.792;9.012;2023-06-22T02:12:16;12.40;;;11.27;;
10116;SDS011;5098;48.792;9.012;2023-06-22T02:14:43;12.93;;;10.63;;
10116;SDS011;5098;48.792;9.012;2023-06-22T02:17:09;12.07;;;10.90;;
10116;SDS011;5098;48.792;9.012;2023-06-22T02:19:36;12.07;;;10.80;;
10116;SDS011;5098;48.792;9.012;2023-06-22T02:22:03;11.83;;;10.60;;
10116;SDS011;5098;48.792;9.012;2023-06-22T02:24:29;12.27;;;11.13;;
10116;SDS011;5098;48.792;9.012;2023-06-22T02:27:00;14.03;;;11.80;;
10116;SDS011;5098;48.792;9.012;2023-06-22T02:29:26;12.90;;;11.60;;
10116;SDS011;5098;48.792;9.012;2023-06-22T02:31:53;12.93;;;11.53;;
10116;SDS011;5098;48.792;9.012;2023-06-22T02:34:19;12.90;;;11.70;;
10116;SDS011;5098;48.792;9.012;2023-06-22T02:36:46;13.53;;;12.13;;
10116;SDS011;5098;48.792;9.012;2023-06-22T02:39:22;13.30;;;11.93;;
10116;SDS011;5098;48.792;9.012;2023-06-22T02:41:52;15.20;;;12.33;;
10116;SDS011;5098;48.792;9.012;2023-06-22T02:44:18;12.67;;;11.47;;
10116;SDS011;5098;48.792;9.012;2023-06-22T02:46:45;11.87;;;10.73;;
10116;SDS011;5098;48.792;9.012;2023-06-22T02:49:11;12.57;;;11.37;;
10116;SDS011;5098;48.792;9.012;2023-06-22T02:51:44;11.70;;;10.57;;
10116;SDS011;5098;48.792;9.012;2023-06-22T02:54:10;10.77;;;9.77;;
10116;SDS011;5098;48.792;9.012;2023-06-22T02:56:36;13.13;;;11.93;;
10116;SDS011;5098;48.792;9.012;2023-06-22T02:59:03;12.40;;;11.23;;
10116;SDS011;5098;48.792;9.012;2023-06-22T03:01:29;12.40;;;10.57;;
10116;SDS011;5098;48.792;9.012;2023-06-22T03:03:56;11.80;;;10.70;;
10116;SDS011;5098;48.792;9.012;2023-06-22T03:06:22;11.97;;;10.80;;
10116;SDS011;5098;48.792;9.012;2023-06-22T03:08:53;11.67;;;10.67;;
10116;SDS011;5098;48.792;9.012;2023-06-22T03:11:19;11.33;;;10.20;;
10116;SDS011;5098;48.792;9.012;2023-06-22T03:13:45;11.37;;;10.23;;
10116;SDS011;5098;48.792;9.012;2023-06-22T03:16:11;11.10;;;10.20;;
10116;SDS011;5098;48.792;9.012;2023-06-22T03:18:37;11.20;;;10.20;;
10116;SDS011;5098;48.792;9.012;2023-06-22T03:21:03;11.87;;;10.43;;
10116;SDS011;5098;48.792;9.012;2023-06-22T03:23:30;11.27;;;10.27;;
10116;SDS011;5098;48.792;9.012;2023-06-22T03:25:56;12.23;;;10.90;;
10116;SDS011;5098;48.792;9.012;2023-06-22T03:28:22;14.43;;;10.40;;
10116;SDS011;5098;48.792;9.012;2023-06-22T03:30:48;13.93;;;12.10;;
10116;SDS011;5098;48.792;9.012;2023-06-22T03:33:14;12.17;;;11.07;;
10116;SDS011;5098;48.792;9.012;2023-06-22T03:35:40;14.30;;;11.77;;
10116;SDS011;5098;48.792;9.012;2023-06-22T03:38:07;11.80;;;10.60;;
10116;SDS011;5098;48.792;9.012;2023-06-22T03:40:33;13.10;;;11.80;;
10116;SDS011;5098;48.792;9.012;2023-06-22T03:42:59;13.57;;;11.83;;
10116;SDS011;5098;48.792;9.012;2023-06-22T03:45:25;16.00;;;11.70;;
10116;SDS011;5098;48.792;9.012;2023-06-22T03:47:51;13.00;;;11.67;;
10116;SDS011;5098;48.792;9.012;2023-06-22T03:50:18;12.00;;;10.90;;
10116;SDS011;5098;48.792;9.012;2023-06-22T03:52:45;13.47;;;12.07;;
10116;SDS011;5098;48.792;9.012;2023-06-22T03:55:11;12.73;;;11.43;;
10116;SDS011;5098;48.792;9.012;2023-06-22T03:57:37;12.93;;;11.50;;
10116;SDS011;5098;48.792;9.012;2023-06-22T04:00:04;12.50;;;11.40;;
10116;SDS011;5098;48.792;9.012;2023-06-22T04:02:34;12.40;;;11.30;;
10116;SDS011;5098;48.792;9.012;2023-06-22T04:05:00;16.37;;;11.37;;
10116;SDS011;5098;48.792;9.012;2023-06-22T04:07:26;12.80;;;10.80;;
10116;SDS011;5098;48.792;9.012;2023-06-22T04:09:52;14.20;;;11.20;;
10116;SDS011;5098;48.792;9.012;2023-06-22T04:12:18;12.10;;;11.10;;
10116;SDS011;5098;48.792;9.012;2023-06-22T04:14:44;17.10;;;11.50;;
10116;SDS011;5098;48.792;9.012;2023-06-22T04:17:10;15.50;;;13.97;;
10116;SDS011;5098;48.792;9.012;2023-06-22T04:19:39;13.30;;;11.90;;
10116;SDS011;5098;48.792;9.012;2023-06-22T04:22:05;11.47;;;10.17;;
10116;SDS011;5098;48.792;9.012;2023-06-22T04:24:32;15.13;;;13.50;;
10116;SDS011;5098;48.792;9.012;2023-06-22T04:26:58;14.40;;;12.30;;
10116;SDS011;5098;48.792;9.012;2023-06-22T04:29:28;13.87;;;12.53;;
10116;SDS011;5098;48.792;9.012;2023-06-22T04:31:55;13.13;;;11.73;;
10116;SDS011;5098;48.792;9.012;2023-06-22T04:34:23;15.03;;;13.73;;
10116;SDS011;5098;48.792;9.012;2023-06-22T04:36:51;15.63;;;12.70;;
10116;SDS011;5098;48.792;9.012;2023-06-22T04:39:17;13.20;;;12.10;;
10116;SDS011;5098;48.792;9.012;2023-06-22T04:41:44;14.87;;;13.17;;
10116;SDS011;5098;48.792;9.012;2023-06-22T04:46:36;13.83;;;12.33;;
10116;SDS011;5098;48.792;9.012;2023-06-22T04:49:08;12.60;;;11.27;;
10116;SDS011;5098;48.792;9.012;2023-06-22T04:51:41;16.43;;;12.70;;
10116;SDS011;5098;48.792;9.012;2023-06-22T04:54:08;13.20;;;12.00;;
10116;SDS011;5098;48.792;9.012;2023-06-22T04:56:34;13.70;;;12.43;;
10116;SDS011;5098;48.792;9.012;2023-06-22T04:59:01;17.10;;;10.57;;
10116;SDS011;5098;48.792;9.012;2023-06-22T05:01:28;12.63;;;11.53;;
10116;SDS011;5098;48.792;9.012;2023-06-22T05:03:56;12.90;;;11.70;;
10116;SDS011;5098;48.792;9.012;2023-06-22T05:06:23;13.70;;;12.50;;
10116;SDS011;5098;48.792;9.012;2023-06-22T05:08:54;12.47;;;11.37;;
10116;SDS011;5098;48.792;9.012;2023-06-22T05:11:24;11.83;;;10.77;;
10116;SDS011;5098;48.792;9.012;2023-06-22T05:13:50;11.87;;;10.03;;
10116;SDS011;5098;48.792;9.012;2023-06-22T05:16:17;11.40;;;10.30;;
10116;SDS011;5098;48.792;9.012;2023-06-22T05:18:49;16.73;;;11.00;;
10116;SDS011;5098;48.792;9.012;2023-06-22T05:21:15;13.57;;;11.37;;
10116;SDS011;5098;48.792;9.012;2023-06-22T05:23:41;13.70;;;12.40;;
10116;SDS011;5098;48.792;9.012;2023-06-22T05:26:07;12.57;;;11.40;;
10116;SDS011;5098;48.792;9.012;2023-06-22T05:28:35;11.53;;;10.43;;
10116;SDS011;5098;48.792;9.012;2023-06-22T05:31:01;13.23;;;10.20;;
10116;SDS011;5098;48.792;9.012;2023-06-22T05:33:27;11.90;;;10.90;;
10116;SDS011;5098;48.792;9.012;2023-06-22T05:35:53;14.90;;;10.23;;
10116;SDS011;5098;48.792;9.012;2023-06-22T05:38:19;10.13;;;9.23;;
10116;SDS011;5098;48.792;9.012;2023-06-22T05:40:45;11.07;;;9.97;;
10116;SDS011;5098;48.792;9.012;2023-06-22T05:43:11;11.73;;;9.77;;
10116;SDS011;5098;48.792;9.012;2023-06-22T05:45:37;12.27;;;10.23;;
10116;SDS011;5098;48.792;9.012;2023-06-22T05:48:03;13.70;;;11.37;;
10116;SDS011;5098;48.792;9.012;2023-06-22T05:50:30;11.33;;;9.10;;
10116;SDS011;5098;48.792;9.012;2023-06-22T05:52:56;16.30;;;9.00;;
10116;SDS011;5098;48.792;9.012;2023-06-22T05:55:22;10.30;;;9.10;;
10116;SDS011;5098;48.792;9.012;2023-06-22T05:57:48;10.47;;;9.13;;
10116;SDS011;5098;48.792;9.012;2023-06-22T06:00:14;10.30;;;8.33;;
10116;SDS011;5098;48.792;9.012;2023-06-22T06:02:40;10.63;;;9.63;;
10116;SDS011;5098;48.792;9.012;2023-06-22T06:05:10;10.47;;;9.47;;
10116;SDS011;5098;48.792;9.012;2023-06-22T06:07:36;9.37;;;8.40;;
10116;SDS011;5098;48.792;9.012;2023-06-22T06:10:02;10.93;;;8.10;;
10116;SDS011;5098;48.792;9.012;2023-06-22T06:12:29;10.20;;;8.50;;
10116;SDS011;5098;48.792;9.012;2023-06-22T06:14:55;9.00;;;8.20;;
10116;SDS011;5098;48.792;9.012;2023-06-22T06:17:21;10.80;;;9.40;;
10116;SDS011;5098;48.792;9.012;2023-06-22T06:19:48;9.20;;;8.10;;
10116;SDS011;5098;48.792;9.012;2023-06-22T06:22:14;8.90;;;8.00;;
10116;SDS011;5098;48.792;9.012;2023-06-22T06:24:40;9.30;;;8.37;;
10116;SDS011;5098;48.792;9.012;2023-06-22T06:27:06;8.80;;;7.90;;
10116;SDS011;5098;48.792;9.012;2023-06-22T06:29:33;8.13;;;7.40;;
10116;SDS011;5098;48.792;9.012;2023-06-22T06:31:59;8.57;;;7.47;;
10116;SDS011;5098;48.792;9.012;2023-06-22T06:34:25;13.60;;;7.80;;
10116;SDS011;5098;48.792;9.012;2023-06-22T06:36:51;9.23;;;8.03;;
10116;SDS011;5098;48.792;9.012;2023-06-22T06:39:17;11.30;;;8.17;;
10116;SDS011;5098;48.792;9.012;2023-06-22T06:41:43;9.50;;;8.23;;
10116;SDS011;5098;48.792;9.012;2023-06-22T06:44:09;9.53;;;8.33;;
10116;SDS011;5098;48.792;9.012;2023-06-22T06:46:35;14.00;;;8.67;;
10116;SDS011;5098;48.792;9.012;2023-06-22T06:49:02;12.67;;;8.83;;
10116;SDS011;5098;48.792;9.012;2023-06-22T06:51:28;8.97;;;8.07;;
10116;SDS011;5098;48.792;9.012;2023-06-22T06:53:54;9.40;;;8.00;;
10116;SDS011;5098;48.792;9.012;2023-06-22T06:56:20;8.63;;;7.73;;
10116;SDS011;5098;48.792;9.012;2023-06-22T06:58:49;12.70;;;8.10;;
10116;SDS011;5098;48.792;9.012;2023-06-22T07:01:15;13.67;;;8.07;;
10116;SDS011;5098;48.792;9.012;2023-06-22T07:03:41;9.00;;;7.37;;
10116;SDS011;5098;48.792;9.012;2023-06-22T07:06:08;10.77;;;7.50;;
10116;SDS011;5098;48.792;9.012;2023-06-22T07:08:34;8.00;;;7.30;;
10116;SDS011;5098;48.792;9.012;2023-06-22T07:11:01;9.40;;;7.13;;
10116;SDS011;5098;48.792;9.012;2023-06-22T07:13:28;10.13;;;7.93;;
10116;SDS011;5098;48.792;9.012;2023-06-22T07:15:54;10.47;;;8.40;;
10116;SDS011;5098;48.792;9.012;2023-06-22T07:18:20;8.40;;;6.80;;
10116;SDS011;5098;48.792;9.012;2023-06-22T07:20:46;8.57;;;7.27;;
10116;SDS011;5098;48.792;9.012;2023-06-22T07:23:12;13.10;;;8.10;;
10116;SDS011;5098;48.792;9.012;2023-06-22T07:25:38;9.63;;;7.70;;
10116;SDS011;5098;48.792;9.012;2023-06-22T07:28:05;8.97;;;8.03;;
10116;SDS011;5098;48.792;9.012;2023-06-22T07:30:32;7.97;;;7.00;;
10116;SDS011;5098;48.792;9.012;2023-06-22T07:32:58;9.77;;;6.57;;
10116;SDS011;5098;48.792;9.012;2023-06-22T07:35:28;9.30;;;7.03;;
10116;SDS011;5098;48.792;9.012;2023-06-22T07:37:54;7.50;;;6.80;;
10116;SDS011;5098;48.792;9.012;2023-06-22T07:40:20;12.00;;;7.43;;
10116;SDS011;5098;48.792;9.012;2023-06-22T07:42:46;9.07;;;6.50;;
10116;SDS011;5098;48.792;9.012;2023-06-22T07:45:17;7.37;;;6.67;;
10116;SDS011;5098;48.792;9.012;2023-06-22T07:47:43;7.17;;;6.27;;
10116;SDS011;5098;48.792;9.012;2023-06-22T07:50:09;8.40;;;5.70;;
10116;SDS011;5098;48.792;9.012;2023-06-22T07:52:35;6.73;;;5.97;;
10116;SDS011;5098;48.792;9.012;2023-06-22T07:55:01;7.37;;;6.50;;
10116;SDS011;5098;48.792;9.012;2023-06-22T07:57:30;9.30;;;6.07;;
10116;SDS011;5098;48.792;9.012;2023-06-22T07:59:59;10.13;;;6.63;;
10116;SDS011;5098;48.792;9.012;2023-06-22T08:02:46;7.70;;;6.30;;
10116;SDS011;5098;48.792;9.012;2023-06-22T08:05:12;8.93;;;6.20;;
10116;SDS011;5098;48.792;9.012;2023-06-22T08:07:39;8.20;;;7.03;;
10116;SDS011;5098;48.792;9.012;2023-06-22T08:10:05;7.43;;;6.47;;
10116;SDS011;5098;48.792;9.012;2023-06-22T08:12:31;9.27;;;6.70;;
10116;SDS011;5098;48.792;9.012;2023-06-22T08:14:58;7.93;;;6.43;;
10116;SDS011;5098;48.792;9.012;2023-06-22T08:17:24;7.57;;;6.83;;
10116;SDS011;5098;48.792;9.012;2023-06-22T08:19:50;7.70;;;6.60;;
10116;SDS011;5098;48.792;9.012;2023-06-22T08:22:16;9.73;;;6.80;;
10116;SDS011;5098;48.792;9.012;2023-06-22T08:24:43;13.03;;;7.83;;
10116;SDS011;5098;48.792;9.012;2023-06-22T08:27:10;9.10;;;7.27;;
10116;SDS011;5098;48.792;9.012;2023-06-22T08:29:40;9.80;;;6.57;;
10116;SDS011;5098;48.792;9.012;2023-06-22T08:32:10;7.77;;;6.97;;
10116;SDS011;5098;48.792;9.012;2023-06-22T08:34:36;7.97;;;6.07;;
10116;SDS011;5098;48.792;9.012;2023-06-22T08:37:07;11.93;;;7.20;;
10116;SDS011;5098;48.792;9.012;2023-06-22T08:39:33;10.50;;;6.77;;
10116;SDS011;5098;48.792;9.012;2023-06-22T08:41:59;9.67;;;5.63;;
10116;SDS011;5098;48.792;9.012;2023-06-22T08:44:25;8.50;;;5.90;;
10116;SDS011;5098;48.792;9.012;2023-06-22T08:46:51;8.53;;;6.80;;
10116;SDS011;5098;48.792;9.012;2023-06-22T08:49:17;12.60;;;6.93;;
10116;SDS011;5098;48.792;9.012;2023-06-22T08:51:43;7.07;;;5.53;;
10116;SDS011;5098;48.792;9.012;2023-06-22T08:54:10;9.30;;;6.30;;
10116;SDS011;5098;48.792;9.012;2023-06-22T08:56:36;8.60;;;5.73;;
10116;SDS011;5098;48.792;9.012;2023-06-22T08:59:03;7.10;;;6.30;;
10116;SDS011;5098;48.792;9.012;2023-06-22T09:01:29;10.83;;;7.00;;
10116;SDS011;5098;48.792;9.012;2023-06-22T09:03:55;9.27;;;6.43;;
10116;SDS011;5098;48.792;9.012;2023-06-22T09:06:22;14.97;;;7.63;;
10116;SDS011;5098;48.792;9.012;2023-06-22T09:08:49;9.80;;;5.97;;
10116;SDS011;5098;48.792;9.012;2023-06-22T09:11:15;10.73;;;6.40;;
10116;SDS011;5098;48.792;9.012;2023-06-22T09:13:41;8.20;;;6.87;;
10116;SDS011;5098;48.792;9.012;2023-06-22T09:16:08;16.70;;;7.47;;
10116;SDS011;5098;48.792;9.012;2023-06-22T09:18:34;8.30;;;6.00;;
10116;SDS011;5098;48.792;9.012;2023-06-22T09:21:01;9.73;;;5.80;;
10116;SDS011;5098;48.792;9.012;2023-06-22T09:23:27;9.90;;;6.63;;
10116;SDS011;5098;48.792;9.012;2023-06-22T09:25:53;8.67;;;6.57;;
10116;SDS011;5098;48.792;9.012;2023-06-22T09:28:19;13.20;;;5.90;;
10116;SDS011;5098;48.792;9.012;2023-06-22T09:30:46;9.07;;;6.50;;
10116;SDS011;5098;48.792;9.012;2023-06-22T09:33:12;10.83;;;6.83;;
10116;SDS011;5098;48.792;9.012;2023-06-22T09:35:38;8.43;;;6.93;;
10116;SDS011;5098;48.792;9.012;2023-06-22T09:38:04;10.33;;;6.33;;
10116;SDS011;5098;48.792;9.012;2023-06-22T09:40:30;8.50;;;6.43;;
10116;SDS011;5098;48.792;9.012;2023-06-22T09:43:00;8.07;;;7.13;;
10116;SDS011;5098;48.792;9.012;2023-06-22T09:45:26;9.50;;;7.30;;
10116;SDS011;5098;48.792;9.012;2023-06-22T09:47:52;11.50;;;8.03;;
10116;SDS011;5098;48.792;9.012;2023-06-22T09:50:18;10.70;;;7.00;;
10116;SDS011;5098;48.792;9.012;2023-06-22T09:52:44;8.10;;;7.30;;
10116;SDS011;5098;48.792;9.012;2023-06-22T09:55:15;9.20;;;6.80;;
10116;SDS011;5098;48.792;9.012;2023-06-22T09:57:41;11.10;;;7.70;;
10116;SDS011;5098;48.792;9.012;2023-06-22T10:00:07;10.07;;;6.93;;
10116;SDS011;5098;48.792;9.012;2023-06-22T10:02:34;10.20;;;6.87;;
10116;SDS011;5098;48.792;9.012;2023-06-22T10:05:00;10.37;;;7.53;;
10116;SDS011;5098;48.792;9.012;2023-06-22T10:07:26;9.37;;;7.37;;
10116;SDS011;5098;48.792;9.012;2023-06-22T10:09:52;10.17;;;6.80;;
10116;SDS011;5098;48.792;9.012;2023-06-22T10:12:18;8.17;;;6.70;;
10116;SDS011;5098;48.792;9.012;2023-06-22T10:14:44;11.83;;;6.20;;
10116;SDS011;5098;48.792;9.012;2023-06-22T10:17:10;12.00;;;7.93;;
10116;SDS011;5098;48.792;9.012;2023-06-22T10:19:37;12.60;;;6.57;;
10116;SDS011;5098;48.792;9.012;2023-06-22T10:22:04;8.80;;;7.33;;
10116;SDS011;5098;48.792;9.012;2023-06-22T10:24:30;11.20;;;7.40;;
10116;SDS011;5098;48.792;9.012;2023-06-22T10:26:56;8.90;;;7.57;;
10116;SDS011;5098;48.792;9.012;2023-06-22T10:29:22;9.30;;;7.00;;
10116;SDS011;5098;48.792;9.012;2023-06-22T10:31:48;13.77;;;7.53;;
10116;SDS011;5098;48.792;9.012;2023-06-22T10:34:14;10.23;;;6.87;;
10116;SDS011;5098;48.792;9.012;2023-06-22T10:36:40;11.87;;;7.20;;
10116;SDS011;5098;48.792;9.012;2023-06-22T10:39:06;10.80;;;7.50;;
10116;SDS011;5098;48.792;9.012;2023-06-22T10:41:33;13.07;;;7.17;;
10116;SDS011;5098;48.792;9.012;2023-06-22T10:43:59;10.50;;;7.10;;
10116;SDS011;5098;48.792;9.012;2023-06-22T10:46:25;9.57;;;7.10;;
10116;SDS011;5098;48.792;9.012;2023-06-22T10:48:52;11.53;;;7.00;;
10116;SDS011;5098;48.792;9.012;2023-06-22T10:51:20;9.60;;;7.17;;
10116;SDS011;5098;48.792;9.012;2023-06-22T10:53:46;9.50;;;7.10;;
10116;SDS011;5098;48.792;9.012;2023-06-22T10:56:12;12.77;;;7.50;;
10116;SDS011;5098;48.792;9.012;2023-06-22T10:58:38;11.40;;;7.23;;
10116;SDS011;5098;48.792;9.012;2023-06-22T11:01:04;8.70;;;7.27;;
10116;SDS011;5098;48.792;9.012;2023-06-22T11:03:30;9.87;;;6.93;;
10116;SDS011;5098;48.792;9.012;2023-06-22T11:05:56;9.10;;;6.90;;
10116;SDS011;5098;48.792;9.012;2023-06-22T11:08:22;10.50;;;6.90;;
10116;SDS011;5098;48.792;9.012;2023-06-22T11:10:48;8.03;;;7.03;;
10116;SDS011;5098;48.792;9.012;2023-06-22T11:13:14;10.83;;;6.70;;
10116;SDS011;5098;48.792;9.012;2023-06-22T11:15:40;10.70;;;7.50;;
10116;SDS011;5098;48.792;9.012;2023-06-22T11:18:06;11.27;;;8.10;;
10116;SDS011;5098;48.792;9.012;2023-06-22T11:20:33;8.50;;;7.20;;
10116;SDS011;5098;48.792;9.012;2023-06-22T11:23:03;13.20;;;8.00;;
10116;SDS011;5098;48.792;9.012;2023-06-22T11:25:30;11.63;;;7.77;;
10116;SDS011;5098;48.792;9.012;2023-06-22T11:27:56;10.30;;;7.10;;
10116;SDS011;5098;48.792;9.012;2023-06-22T11:30:22;10.63;;;7.47;;
10116;SDS011;5098;48.792;9.012;2023-06-22T11:32:48;12.17;;;7.60;;
10116;SDS011;5098;48.792;9.012;2023-06-22T11:35:14;14.73;;;8.33;;
10116;SDS011;5098;48.792;9.012;2023-06-22T11:37:40;10.57;;;7.43;;
10116;SDS011;5098;48.792;9.012;2023-06-22T11:40:07;12.60;;;7.83;;
10116;SDS011;5098;48.792;9.012;2023-06-22T11:42:34;11.40;;;7.10;;
10116;SDS011;5098;48.792;9.012;2023-06-22T11:45:00;11.07;;;6.93;;
10116;SDS011;5098;48.792;9.012;2023-06-22T11:47:26;12.97;;;7.67;;
10116;SDS011;5098;48.792;9.012;2023-06-22T11:49:52;12.53;;;7.90;;
10116;SDS011;5098;48.792;9.012;2023-06-22T11:52:19;8.13;;;7.20;;
10116;SDS011;5098;48.792;9.012;2023-06-22T11:54:45;15.63;;;7.20;;
10116;SDS011;5098;48.792;9.012;2023-06-22T11:57:11;8.40;;;7.40;;
10116;SDS011;5098;48.792;9.012;2023-06-22T11:59:37;12.00;;;7.57;;
10116;SDS011;5098;48.792;9.012;2023-06-22T12:02:03;11.17;;;7.57;;
10116;SDS011;5098;48.792;9.012;2023-06-22T12:04:30;15.60;;;8.13;;
10116;SDS011;5098;48.792;9.012;2023-06-22T12:06:56;14.03;;;7.77;;
10116;SDS011;5098;48.792;9.012;2023-06-22T12:09:23;13.07;;;7.90;;
10116;SDS011;5098;48.792;9.012;2023-06-22T12:11:49;12.53;;;7.23;;
10116;SDS011;5098;48.792;9.012;2023-06-22T12:14:15;12.10;;;8.00;;
10116;SDS011;5098;48.792;9.012;2023-06-22T12:16:41;14.63;;;8.07;;
10116;SDS011;5098;48.792;9.012;2023-06-22T12:19:09;11.33;;;7.30;;
10116;SDS011;5098;48.792;9.012;2023-06-22T12:21:35;9.03;;;7.33;;
10116;SDS011;5098;48.792;9.012;2023-06-22T12:24:01;16.03;;;8.20;;
10116;SDS011;5098;48.792;9.012;2023-06-22T12:26:27;10.43;;;8.33;;
10116;SDS011;5098;48.792;9.012;2023-06-22T12:28:53;13.33;;;7.40;;
10116;SDS011;5098;48.792;9.012;2023-06-22T12:31:19;9.50;;;7.50;;
10116;SDS011;5098;48.792;9.012;2023-06-22T12:33:45;13.13;;;7.23;;
10116;SDS011;5098;48.792;9.012;2023-06-22T12:36:11;14.77;;;7.80;;
10116;SDS011;5098;48.792;9.012;2023-06-22T12:38:38;12.03;;;7.90;;
10116;SDS011;5098;48.792;9.012;2023-06-22T12:41:04;10.67;;;7.83;;
10116;SDS011;5098;48.792;9.012;2023-06-22T12:43:30;9.10;;;7.83;;
10116;SDS011;5098;48.792;9.012;2023-06-22T12:45:56;12.73;;;7.87;;
10116;SDS011;5098;48.792;9.012;2023-06-22T12:48:22;14.30;;;8.33;;
10116;SDS011;5098;48.792;9.012;2023-06-22T12:50:48;15.77;;;7.30;;
10116;SDS011;5098;48.792;9.012;2023-06-22T12:53:14;10.43;;;7.63;;
10116;SDS011;5098;48.792;9.012;2023-06-22T12:55:40;11.73;;;8.20;;
10116;SDS011;5098;48.792;9.012;2023-06-22T12:58:06;25.23;;;8.07;;
10116;SDS011;5098;48.792;9.012;2023-06-22T13:00:32;10.33;;;7.60;;
10116;SDS011;5098;48.792;9.012;2023-06-22T13:02:58;11.00;;;8.17;;
10116;SDS011;5098;48.792;9.012;2023-06-22T13:05:24;14.17;;;8.40;;
10116;SDS011;5098;48.792;9.012;2023-06-22T13:07:50;10.73;;;7.83;;
10116;SDS011;5098;48.792;9.012;2023-06-22T13:10:17;10.67;;;7.53;;
10116;SDS011;5098;48.792;9.012;2023-06-22T13:12:43;14.30;;;7.80;;
10116;SDS011;5098;48.792;9.012;2023-06-22T13:15:09;15.50;;;7.97;;
10116;SDS011;5098;48.792;9.012;2023-06-22T13:17:35;12.43;;;7.83;;
10116;SDS011;5098;48.792;9.012;2023-06-22T13:20:01;14.03;;;8.23;;
10116;SDS011;5098;48.792;9.012;2023-06-22T13:22:33;12.13;;;8.17;;
10116;SDS011;5098;48.792;9.012;2023-06-22T13:25:05;12.30;;;9.20;;
10116;SDS011;5098;48.792;9.012;2023-06-22T13:27:31;12.97;;;8.03;;
10116;SDS011;5098;48.792;9.012;2023-06-22T13:29:57;11.80;;;7.40;;
10116;SDS011;5098;48.792;9.012;2023-06-22T13:32:23;12.17;;;8.10;;
10116;SDS011;5098;48.792;9.012;2023-06-22T13:34:51;12.10;;;7.70;;
10116;SDS011;5098;48.792;9.012;2023-06-22T13:37:17;11.87;;;8.60;;
10116;SDS011;5098;48.792;9.012;2023-06-22T13:39:43;10.63;;;7.47;;
10116;SDS011;5098;48.792;9.012;2023-06-22T13:42:09;14.27;;;8.40;;
10116;SDS011;5098;48.792;9.012;2023-06-22T13:44:35;9.80;;;8.20;;
10116;SDS011;5098;48.792;9.012;2023-06-22T13:47:02;10.30;;;8.10;;
10116;SDS011;5098;48.792;9.012;2023-06-22T13:49:29;15.93;;;8.10;;
10116;SDS011;5098;48.792;9.012;2023-06-22T13:51:55;9.80;;;8.00;;
10116;SDS011;5098;48.792;9.012;2023-06-22T13:54:22;10.30;;;7.87;;
10116;SDS011;5098;48.792;9.012;2023-06-22T13:56:48;12.10;;;7.87;;
10116;SDS011;5098;48.792;9.012;2023-06-22T13:59:14;10.20;;;7.60;;
10116;SDS011;5098;48.792;9.012;2023-06-22T14:01:40;15.83;;;7.20;;
10116;SDS011;5098;48.792;9.012;2023-06-22T14:04:06;11.83;;;7.87;;
10116;SDS011;5098;48.792;9.012;2023-06-22T14:06:32;8.47;;;7.57;;
10116;SDS011;5098;48.792;9.012;2023-06-22T14:08:59;8.57;;;6.70;;
10116;SDS011;5098;48.792;9.012;2023-06-22T14:11:25;12.50;;;7.33;;
10116;SDS011;5098;48.792;9.012;2023-06-22T14:13:51;9.37;;;7.60;;
10116;SDS011;5098;48.792;9.012;2023-06-22T14:16:17;12.53;;;7.20;;
10116;SDS011;5098;48.792;9.012;2023-06-22T14:18:44;11.53;;;6.80;;
10116;SDS011;5098;48.792;9.012;2023-06-22T14:21:10;9.67;;;6.87;;
10116;SDS011;5098;48.792;9.012;2023-06-22T14:23:37;15.20;;;6.23;;
10116;SDS011;5098;48.792;9.012;2023-06-22T14:26:03;11.93;;;7.03;;
10116;SDS011;5098;48.792;9.012;2023-06-22T14:28:29;10.97;;;5.90;;
10116;SDS011;5098;48.792;9.012;2023-06-22T14:30:55;15.17;;;7.40;;
10116;SDS011;5098;48.792;9.012;2023-06-22T14:33:21;18.37;;;6.67;;
10116;SDS011;5098;48.792;9.012;2023-06-22T14:35:47;9.77;;;5.77;;
10116;SDS011;5098;48.792;9.012;2023-06-22T14:38:14;8.60;;;5.03;;
10116;SDS011;5098;48.792;9.012;2023-06-22T14:40:40;10.33;;;4.80;;
10116;SDS011;5098;48.792;9.012;2023-06-22T14:43:06;11.40;;;4.30;;
10116;SDS011;5098;48.792;9.012;2023-06-22T14:45:32;7.37;;;4.10;;